Time;durP1;ratioP1;P1;durP2;ratioP2;P2;SDS_P1;SDS_P2;PMS_P1;PMS_P2;Temp;Humidity;BMP_temperature;BMP_pressure;BME280_temperature;BME280_humidity;BME280_pressure;Samples;Min_cycle;Max_cycle;Signal;HPM_P1;HPM_P2
2022/08/09 00:00:36;;;;;;;8.03;7.28;;;;;;;18.22;100.00;99855.73;1711252;82;20951;-78
2022/08/09 00:03:03;;;;;;;8.53;7.62;;;;;;;18.19;100.00;99858.56;1712657;82;21037;-78
2022/08/09 00:05:30;;;;;;;8.63;7.83;;;;;;;18.16;100.00;99857.00;1721151;80;21143;-78
2022/08/09 00:07:56;;;;;;;8.25;7.42;;;;;;;18.16;100.00;99857.00;1717993;81;20951;-78
2022/08/09 00:10:23;;;;;;;8.93;8.08;;;;;;;18.14;100.00;99857.58;1717751;81;21000;-78
2022/08/09 00:12:51;;;;;;;8.73;7.90;;;;;;;18.11;100.00;99849.88;1726233;81;20955;-78
2022/08/09 00:15:18;;;;;;;8.38;7.58;;;;;;;18.08;100.00;99857.13;1722021;82;20975;-79
2022/08/09 00:17:45;;;;;;;7.45;6.78;;;;;;;18.06;100.00;99854.59;1716750;82;21229;-78
2022/08/09 00:20:11;;;;;;;8.23;7.53;;;;;;;18.05;100.00;99858.17;1715475;81;21468;-78
2022/08/09 00:22:37;;;;;;;8.73;7.87;;;;;;;18.05;100.00;99858.64;1747612;81;20998;-78
2022/08/09 00:25:05;;;;;;;7.95;7.15;;;;;;;18.05;100.00;99853.38;1720004;82;21109;-78
2022/08/09 00:27:32;;;;;;;8.08;7.40;;;;;;;18.05;100.00;99847.64;1709550;82;20990;-78
2022/08/09 00:30:00;;;;;;;7.05;6.53;;;;;;;18.05;100.00;99848.95;1666812;84;21126;-78
2022/08/09 00:32:27;;;;;;;8.18;7.47;;;;;;;18.04;100.00;99844.64;1680062;83;21109;-78
2022/08/09 00:34:54;;;;;;;9.35;7.40;;;;;;;18.02;100.00;99847.84;1685779;83;21475;-78
2022/08/09 00:37:21;;;;;;;8.05;7.40;;;;;;;18.01;100.00;99844.83;1718927;82;21054;-78
2022/08/09 00:39:47;;;;;;;7.53;6.83;;;;;;;18.00;100.00;99843.61;1712362;82;20994;-78
2022/08/09 00:42:13;;;;;;;6.90;6.30;;;;;;;17.96;100.00;99840.84;1718609;82;21094;-78
2022/08/09 00:44:40;;;;;;;7.65;6.90;;;;;;;17.90;100.00;99843.39;1735315;81;21069;-78
2022/08/09 00:47:07;;;;;;;7.53;6.87;;;;;;;17.84;100.00;99845.10;1725279;81;20939;-78
2022/08/09 00:49:34;;;;;;;8.48;7.67;;;;;;;17.80;100.00;99841.82;1720471;82;21003;-78
2022/08/09 00:52:01;;;;;;;8.95;6.65;;;;;;;17.79;100.00;99851.13;1747721;80;21562;-78
2022/08/09 00:54:28;;;;;;;8.18;7.37;;;;;;;17.81;100.00;99856.66;1729550;80;21525;-78
2022/08/09 00:56:54;;;;;;;7.75;6.58;;;;;;;17.85;100.00;99861.27;1738270;80;20951;-78
2022/08/09 00:59:21;;;;;;;7.95;7.22;;;;;;;17.89;100.00;99862.28;1740365;81;20974;-77
2022/08/09 01:01:48;;;;;;;8.88;7.15;;;;;;;17.95;100.00;99861.52;1712766;80;20995;-78
2022/08/09 01:04:32;;;;;;;8.00;7.25;;;;;;;18.00;100.00;99861.56;1714193;82;21019;-77
2022/08/09 01:07:27;;;;;;;7.20;6.58;;;;;;;18.04;100.00;99862.22;1713620;82;21805;-77
2022/08/09 01:10:06;;;;;;;7.25;6.65;;;;;;;18.07;100.00;99860.23;1738376;80;21588;-77
2022/08/09 01:12:38;;;;;;;6.92;6.22;;;;;;;18.08;100.00;99856.66;1732302;80;21041;-78
2022/08/09 01:15:08;;;;;;;7.20;6.60;;;;;;;18.11;100.00;99855.61;1711397;82;20958;-78
2022/08/09 01:17:46;;;;;;;6.60;5.90;;;;;;;18.14;100.00;99849.67;1710001;83;20938;-78
2022/08/09 01:20:28;;;;;;;7.12;6.42;;;;;;;18.15;100.00;99847.42;1712435;83;21834;-78
2022/08/09 01:23:12;;;;;;;7.55;6.70;;;;;;;18.13;100.00;99857.67;1713747;82;20944;-78
2022/08/09 01:25:59;;;;;;;9.55;7.00;;;;;;;18.09;100.00;99858.34;1728193;82;20955;-78
2022/08/09 01:28:26;;;;;;;7.65;6.97;;;;;;;18.08;100.00;99858.44;1724126;80;21553;-78
2022/08/09 01:30:54;;;;;;;7.85;7.15;;;;;;;18.07;100.00;99861.55;1719704;81;21151;-78
2022/08/09 01:33:24;;;;;;;8.18;7.47;;;;;;;18.07;100.00;99860.23;1713660;82;21138;-78
2022/08/09 01:36:02;;;;;;;7.60;6.90;;;;;;;18.05;100.00;99858.64;1658708;83;21172;-78
2022/08/09 01:38:30;;;;;;;8.95;8.10;;;;;;;18.01;100.00;99857.15;1712605;82;20960;-78
2022/08/09 01:41:20;;;;;;;8.13;7.30;;;;;;;17.97;100.00;99856.53;1719774;81;20987;-78
2022/08/09 01:43:49;;;;;;;8.15;7.45;;;;;;;17.94;100.00;99853.25;1688844;81;20954;-78
2022/08/09 01:46:25;;;;;;;8.10;7.42;;;;;;;17.88;100.00;99852.70;1722088;80;21139;-78
2022/08/09 01:48:52;;;;;;;8.63;7.72;;;;;;;17.85;100.00;99852.90;1709368;82;21079;-79
2022/08/09 01:51:19;;;;;;;8.73;8.03;;;;;;;17.82;100.00;99853.09;1717182;82;21554;-78
2022/08/09 01:53:45;;;;;;;8.85;7.58;;;;;;;17.80;100.00;99851.50;1714050;82;21006;-78
2022/08/09 01:56:12;;;;;;;8.25;7.50;;;;;;;17.77;100.00;99860.94;1711004;83;21554;-78
2022/08/09 01:58:39;;;;;;;7.75;7.08;;;;;;;17.70;100.00;99851.27;1710744;83;21634;-78
2022/08/09 02:01:05;;;;;;;8.43;7.70;;;;;;;17.67;100.00;99852.78;1674590;83;20952;-78
2022/08/09 02:03:32;;;;;;;7.97;7.35;;;;;;;17.63;100.00;99852.56;1675674;82;21129;-78
2022/08/09 02:05:58;;;;;;;8.95;8.05;;;;;;;17.60;100.00;99861.96;1712394;82;21016;-78
2022/08/09 02:08:25;;;;;;;8.23;7.53;;;;;;;17.58;100.00;99858.11;1700428;83;20959;-78
2022/08/09 02:10:53;;;;;;;7.20;6.53;;;;;;;17.57;100.00;99856.92;1716952;81;21850;-78
2022/08/09 02:13:22;;;;;;;8.23;7.42;;;;;;;17.55;100.00;99853.55;1727220;81;21569;-77
2022/08/09 02:15:50;;;;;;;8.35;7.58;;;;;;;17.50;100.00;99849.89;1711654;82;21010;-78
2022/08/09 02:18:24;;;;;;;8.35;7.65;;;;;;;17.45;100.00;99845.86;1671293;84;20998;-78
2022/08/09 02:21:02;;;;;;;7.58;6.92;;;;;;;17.41;100.00;99845.67;1670909;83;21151;-78
2022/08/09 02:23:42;;;;;;;7.40;6.70;;;;;;;17.37;100.00;99846.83;1675032;84;21651;-78
2022/08/09 02:26:11;;;;;;;7.45;6.85;;;;;;;17.32;100.00;99856.78;1712121;82;21011;-78
2022/08/09 02:28:51;;;;;;;9.75;8.03;;;;;;;17.29;100.00;99858.29;1747890;81;20966;-78
2022/08/09 02:31:22;;;;;;;8.43;7.72;;;;;;;17.28;100.00;99857.91;1734526;81;21062;-78
2022/08/09 02:33:51;;;;;;;8.48;6.90;;;;;;;17.27;100.00;99861.48;1718922;81;21493;-79
2022/08/09 02:36:28;;;;;;;7.92;7.12;;;;;;;17.25;100.00;99862.05;1742296;82;21757;-79
2022/08/09 02:38:56;;;;;;;8.55;7.80;;;;;;;17.25;100.00;99869.93;1724048;80;21609;-79
2022/08/09 02:41:27;;;;;;;8.00;7.37;;;;;;;17.25;100.00;99868.15;1712079;82;21128;-79
2022/08/09 02:43:54;;;;;;;7.92;7.22;;;;;;;17.23;100.00;99872.19;1712443;83;21059;-79
2022/08/09 02:46:20;;;;;;;7.33;6.62;;;;;;;17.22;100.00;99875.75;1652805;84;21099;-78
2022/08/09 02:48:47;;;;;;;7.42;6.72;;;;;;;17.25;100.00;99873.88;1723592;82;21172;-79
2022/08/09 02:51:14;;;;;;;8.30;7.50;;;;;;;17.27;100.00;99864.11;1716669;82;20990;-79
2022/08/09 02:53:44;;;;;;;8.80;8.00;;;;;;;17.30;100.00;99859.98;1709478;82;21010;-79
2022/08/09 02:56:10;;;;;;;7.92;7.22;;;;;;;17.37;100.00;99857.35;1713199;82;20967;-78
2022/08/09 02:58:38;;;;;;;7.90;7.15;;;;;;;17.40;100.00;99854.03;1710833;83;21002;-78
2022/08/09 03:01:08;;;;;;;8.00;7.20;;;;;;;17.42;100.00;99856.09;1714364;81;21090;-82
2022/08/09 03:03:38;;;;;;;8.15;7.45;;;;;;;17.43;100.00;99855.16;1742227;81;21522;-79
2022/08/09 03:06:06;;;;;;;8.58;7.58;;;;;;;17.45;100.00;99853.74;1725749;82;20947;-79
2022/08/09 03:08:33;;;;;;;8.30;6.90;;;;;;;17.46;100.00;99854.12;1726994;81;21006;-79
2022/08/09 03:11:00;;;;;;;7.58;6.87;;;;;;;17.50;100.00;99861.72;1727206;81;21199;-79
2022/08/09 03:13:26;;;;;;;8.60;7.90;;;;;;;17.58;100.00;99863.03;1729209;82;21129;-79
2022/08/09 03:15:53;;;;;;;8.15;7.45;;;;;;;17.66;100.00;99867.34;1733124;82;21542;-79
2022/08/09 03:18:19;;;;;;;8.53;7.83;;;;;;;17.78;100.00;99866.57;1709433;82;21026;-79
2022/08/09 03:20:46;;;;;;;8.35;7.60;;;;;;;17.95;100.00;99866.78;1709912;82;21058;-79
2022/08/09 03:23:12;;;;;;;7.40;6.80;;;;;;;18.18;100.00;99872.70;1713442;82;22591;-79
2022/08/09 03:25:40;;;;;;;7.90;6.97;;;;;;;18.45;100.00;99875.25;1697837;82;21549;-78
2022/08/09 03:28:07;;;;;;;7.50;6.90;;;;;;;18.75;100.00;99878.97;1723682;81;21036;-79
2022/08/09 03:30:34;;;;;;;7.87;7.17;;;;;;;19.00;100.00;99882.04;1719482;80;20987;-79
2022/08/09 03:33:07;;;;;;;7.10;6.55;;;;;;;19.16;100.00;99888.80;1691149;82;21038;-79
2022/08/09 03:35:35;;;;;;;6.75;6.15;;;;;;;19.31;100.00;99888.66;1729993;81;21192;-79
2022/08/09 03:38:02;;;;;;;10.48;6.37;;;;;;;19.47;100.00;99896.69;1731428;81;21120;-79
2022/08/09 03:40:29;;;;;;;7.75;7.00;;;;;;;19.53;100.00;99892.33;1715816;82;21523;-79
2022/08/09 03:42:55;;;;;;;7.30;6.70;;;;;;;19.53;100.00;99898.09;1718823;81;20999;-79
2022/08/09 03:45:22;;;;;;;6.97;6.30;;;;;;;19.56;100.00;99884.68;1733951;80;21058;-80
2022/08/09 03:47:48;;;;;;;7.35;6.62;;;;;;;19.64;100.00;99884.95;1749052;82;20947;-79
2022/08/09 03:50:14;;;;;;;6.90;6.22;;;;;;;19.69;100.00;99888.11;1711986;83;21203;-79
2022/08/09 03:52:41;;;;;;;7.62;6.92;;;;;;;19.69;100.00;99890.75;1711485;82;21101;-81
2022/08/09 03:55:09;;;;;;;6.95;5.95;;;;;;;19.69;100.00;99899.14;1683617;84;21034;-73
2022/08/09 05:49:37;;;;;;;6.65;5.87;;;;;;;19.23;100.00;99916.87;1813092;79;22682;-74
2022/08/09 05:52:04;;;;;;;5.90;5.40;;;;;;;19.17;100.00;99922.13;1786308;80;20997;-74
2022/08/09 05:54:31;;;;;;;7.70;5.22;;;;;;;19.20;100.00;99917.93;1771117;80;21149;-75
2022/08/09 05:56:59;;;;;;;6.90;4.90;;;;;;;19.25;100.00;99914.98;1785673;80;21017;-75
2022/08/09 05:59:25;;;;;;;7.47;5.03;;;;;;;19.34;100.00;99925.37;1785864;80;21005;-75
2022/08/09 06:01:54;;;;;;;5.58;5.08;;;;;;;19.43;100.00;99928.19;1785252;80;21549;-73
2022/08/09 06:04:21;;;;;;;5.62;5.05;;;;;;;19.52;100.00;99931.54;1765082;80;21152;-75
2022/08/09 06:06:48;;;;;;;5.35;4.95;;;;;;;19.63;100.00;99933.40;1775531;79;21141;-75
2022/08/09 06:09:16;;;;;;;5.22;4.72;;;;;;;19.73;100.00;99929.16;1746527;82;21021;-74
2022/08/09 06:11:43;;;;;;;5.22;4.80;;;;;;;19.88;100.00;99925.89;1746434;82;21121;-74
2022/08/09 06:14:09;;;;;;;5.70;4.45;;;;;;;20.07;100.00;99935.47;1746670;82;22410;-75
2022/08/09 06:16:36;;;;;;;5.05;4.65;;;;;;;20.21;100.00;99927.84;1756686;80;21014;-75
2022/08/09 06:19:05;;;;;;;8.33;5.00;;;;;;;20.31;100.00;99928.86;1770065;81;21135;-75
2022/08/09 06:21:31;;;;;;;5.25;4.78;;;;;;;20.38;100.00;99931.94;1770422;81;21061;-76
2022/08/09 06:23:59;;;;;;;5.80;4.67;;;;;;;20.44;100.00;99934.09;1770374;80;21113;-75
2022/08/09 06:26:26;;;;;;;7.05;4.95;;;;;;;20.47;99.15;99933.39;1770607;81;21045;-75
2022/08/09 06:28:54;;;;;;;4.78;4.37;;;;;;;20.46;98.40;99934.83;1771099;81;21049;-75
2022/08/09 06:31:20;;;;;;;4.70;4.28;;;;;;;20.45;98.76;99927.38;1770065;80;21113;-75
2022/08/09 06:33:48;;;;;;;4.87;4.47;;;;;;;20.47;98.20;99927.27;1770571;80;21029;-74
2022/08/09 06:36:15;;;;;;;5.35;4.70;;;;;;;20.46;97.92;99930.86;1783263;79;21135;-75
2022/08/09 06:38:43;;;;;;;5.60;5.10;;;;;;;20.48;98.07;99927.63;1802474;79;21038;-75
2022/08/09 06:41:10;;;;;;;5.70;5.20;;;;;;;20.58;98.60;99928.12;1802303;79;21018;-76
2022/08/09 06:43:37;;;;;;;4.62;4.22;;;;;;;20.71;97.30;99927.22;1802124;79;22580;-75
2022/08/09 06:46:04;;;;;;;4.78;4.42;;;;;;;20.83;96.49;99931.55;1801591;79;21029;-76
2022/08/09 06:48:31;;;;;;;4.25;3.65;;;;;;;20.95;95.43;99932.80;1796744;79;21065;-75
2022/08/09 06:50:59;;;;;;;7.05;4.47;;;;;;;21.05;94.54;99931.59;1788031;80;21030;-76
2022/08/09 06:53:26;;;;;;;9.10;4.40;;;;;;;21.13;93.43;99932.33;1787003;79;21014;-76
2022/08/09 06:55:53;;;;;;;4.55;4.12;;;;;;;21.18;93.52;99930.99;1783959;80;21112;-77
2022/08/09 06:58:20;;;;;;;4.20;3.80;;;;;;;21.26;93.22;99937.89;1777787;80;21152;-75
2022/08/09 07:00:46;;;;;;;4.50;4.10;;;;;;;21.36;92.92;99934.06;1788337;80;21160;-76
2022/08/09 07:03:13;;;;;;;5.25;3.77;;;;;;;21.43;91.69;99931.75;1761909;79;20972;-75
2022/08/09 07:05:41;;;;;;;4.42;3.85;;;;;;;21.41;90.39;99934.52;1776740;80;21380;-77
2022/08/09 07:08:07;;;;;;;4.17;3.75;;;;;;;21.40;89.50;99927.53;1697499;83;21796;-76
2022/08/09 07:10:34;;;;;;;5.60;3.17;;;;;;;21.45;90.15;99924.05;1776907;80;21082;-77
2022/08/09 07:13:00;;;;;;;3.60;3.30;;;;;;;21.57;88.37;99927.06;1750020;81;21392;-77
2022/08/09 07:15:27;;;;;;;4.15;3.12;;;;;;;21.68;86.43;99942.08;1740791;82;21085;-77
2022/08/09 07:17:54;;;;;;;2.85;2.60;;;;;;;21.68;83.55;99934.14;1768569;80;21546;-81
2022/08/09 07:20:20;;;;;;;2.72;2.52;;;;;;;21.68;82.18;99940.75;1772346;80;21206;-81
2022/08/09 07:22:47;;;;;;;3.25;2.50;;;;;;;21.65;81.76;99936.55;1771609;80;22149;-81
2022/08/09 07:25:14;;;;;;;2.50;2.30;;;;;;;21.68;81.39;99938.11;1771694;80;21201;-77
2022/08/09 07:27:42;;;;;;;2.70;2.50;;;;;;;21.76;82.22;99936.19;1772007;80;21105;-79
2022/08/09 07:30:14;;;;;;;2.35;2.20;;;;;;;21.90;81.94;99931.93;1743305;80;21022;-78
2022/08/09 07:32:40;;;;;;;4.25;2.37;;;;;;;22.04;80.37;99931.67;1762297;79;21138;-76
2022/08/09 07:35:09;;;;;;;3.25;2.60;;;;;;;22.16;78.27;99932.50;1777296;79;21375;-78
2022/08/09 07:37:35;;;;;;;2.25;2.12;;;;;;;22.27;78.68;99920.52;1795713;79;21636;-77
2022/08/09 07:40:04;;;;;;;3.17;1.85;;;;;;;22.42;77.44;99916.59;1715703;83;21566;-77
2022/08/09 07:42:31;;;;;;;2.02;1.77;;;;;;;22.53;75.27;99905.94;1796084;79;21029;-76
2022/08/09 07:44:58;;;;;;;2.37;1.60;;;;;;;22.57;75.13;99907.86;1795475;79;21102;-79
2022/08/09 07:47:24;;;;;;;2.25;1.70;;;;;;;22.61;74.01;99908.77;1795789;79;21037;-76
2022/08/09 07:49:51;;;;;;;1.70;1.60;;;;;;;22.59;73.11;99912.03;1718535;82;21049;-74
2022/08/09 07:52:19;;;;;;;2.15;1.72;;;;;;;22.57;72.49;99916.66;1745500;82;21178;-76
2022/08/09 07:54:46;;;;;;;3.75;1.82;;;;;;;22.58;72.54;99914.84;1719356;82;21025;-75
2022/08/09 07:57:13;;;;;;;1.85;1.75;;;;;;;22.58;72.10;99922.80;1745161;82;21065;-78
2022/08/09 07:59:40;;;;;;;3.95;1.67;;;;;;;22.55;72.15;99917.74;1718729;83;21073;-79
2022/08/09 08:02:06;;;;;;;1.70;1.60;;;;;;;22.54;72.28;99920.04;1745193;82;21022;-75
2022/08/09 08:04:35;;;;;;;1.92;1.75;;;;;;;22.56;71.68;99926.05;1718999;83;21495;-76
2022/08/09 08:07:02;;;;;;;1.85;1.75;;;;;;;22.61;71.96;99928.66;1684144;85;21543;-80
2022/08/09 08:09:30;;;;;;;1.98;1.72;;;;;;;22.67;71.14;99930.80;1684241;85;21628;-74
2022/08/09 08:11:57;;;;;;;2.02;1.90;;;;;;;22.68;69.83;99931.16;1684413;85;21071;-74
2022/08/09 08:14:23;;;;;;;1.70;1.60;;;;;;;22.65;70.19;99942.02;1684002;85;21675;-78
2022/08/09 08:16:50;;;;;;;1.77;1.67;;;;;;;22.65;70.71;99947.80;1684187;85;20992;-78
2022/08/09 08:19:17;;;;;;;3.02;1.60;;;;;;;22.69;70.58;99935.48;1683496;85;21015;-78
2022/08/09 08:21:44;;;;;;;3.77;1.70;;;;;;;22.74;70.55;99930.29;1700287;83;21122;-77
2022/08/09 08:24:11;;;;;;;3.00;1.60;;;;;;;22.74;70.31;99932.45;1718456;82;21059;-74
2022/08/09 08:26:37;;;;;;;2.27;1.87;;;;;;;22.71;69.31;99935.84;1683705;85;21040;-75
2022/08/09 08:29:04;;;;;;;2.50;1.47;;;;;;;22.64;70.54;99939.48;1700047;84;21630;-74
2022/08/09 08:31:31;;;;;;;1.98;1.62;;;;;;;22.61;70.19;99942.39;1719226;83;21593;-77
2022/08/09 08:33:59;;;;;;;5.95;1.65;;;;;;;22.54;69.90;99935.46;1718680;83;21129;-79
2022/08/09 08:36:27;;;;;;;1.90;1.42;;;;;;;22.46;70.41;99933.92;1718378;83;21007;-77
2022/08/09 08:38:54;;;;;;;2.67;2.02;;;;;;;22.42;70.76;99931.64;1718734;83;21093;-77
2022/08/09 08:41:21;;;;;;;1.95;1.45;;;;;;;22.34;71.45;99937.12;1718355;83;21066;-77
2022/08/09 08:43:48;;;;;;;1.65;1.45;;;;;;;22.29;71.48;99947.73;1669120;83;21646;-76
2022/08/09 08:46:19;;;;;;;5.45;1.75;;;;;;;22.18;69.94;99945.14;1718247;83;21159;-73
2022/08/09 08:48:47;;;;;;;1.80;1.50;;;;;;;22.07;70.36;99949.13;1715460;83;21813;-81
2022/08/09 08:51:15;;;;;;;1.70;1.20;;;;;;;21.96;70.89;99948.66;1720076;82;21202;-73
2022/08/09 08:53:42;;;;;;;3.87;1.77;;;;;;;21.87;71.67;99954.20;1741486;82;21533;-75
2022/08/09 08:56:08;;;;;;;5.05;1.50;;;;;;;21.76;72.37;99953.39;1741243;82;21013;-81
2022/08/09 08:58:36;;;;;;;1.72;1.60;;;;;;;21.64;73.01;99948.09;1744029;82;21517;-74
2022/08/09 09:01:03;;;;;;;3.45;1.87;;;;;;;21.57;74.63;99950.89;1744421;82;20886;-74
2022/08/09 09:03:33;;;;;;;1.92;1.65;;;;;;;21.54;75.57;99951.61;1744460;81;21022;-75
2022/08/09 09:06:02;;;;;;;2.08;1.55;;;;;;;21.50;76.60;99948.36;1764287;80;20967;-73
2022/08/09 09:08:33;;;;;;;3.10;1.62;;;;;;;21.45;78.26;99942.58;1775136;80;21550;-79
2022/08/09 09:11:02;;;;;;;2.27;1.35;;;;;;;21.40;78.93;99938.13;1775107;80;21238;-75
2022/08/09 09:13:36;;;;;;;3.90;1.95;;;;;;;21.38;80.40;99940.56;1775085;80;21596;-73
2022/08/09 09:16:04;;;;;;;1.70;1.60;;;;;;;21.39;81.11;99939.08;1754066;80;21033;-73
2022/08/09 09:18:31;;;;;;;4.17;2.00;;;;;;;21.44;81.59;99942.70;1775279;80;21049;-74
2022/08/09 09:20:58;;;;;;;5.92;1.95;;;;;;;21.52;82.63;99946.44;1775311;80;20887;-74
2022/08/09 09:23:42;;;;;;;5.90;1.77;;;;;;;21.65;83.84;99948.45;1775130;80;21932;-76
2022/08/09 09:26:13;;;;;;;1.62;1.52;;;;;;;21.76;83.95;99946.77;1775051;80;21079;-70
2022/08/09 09:28:47;;;;;;;2.50;1.50;;;;;;;21.80;80.66;99944.22;1775097;80;21038;-69
2022/08/09 09:31:18;;;;;;;2.17;1.42;;;;;;;21.82;80.53;99946.26;1775415;80;20982;-75
2022/08/09 09:33:44;;;;;;;3.15;1.80;;;;;;;21.85;81.15;99943.37;1775158;80;20944;-74
2022/08/09 09:36:12;;;;;;;5.40;1.50;;;;;;;21.90;79.64;99946.02;1775159;80;21502;-71
2022/08/09 09:38:51;;;;;;;3.52;1.47;;;;;;;21.89;76.69;99946.14;1774760;80;21273;-73
2022/08/09 09:41:28;;;;;;;1.82;1.32;;;;;;;21.87;76.44;99952.03;1775771;80;20883;-73
2022/08/09 09:43:57;;;;;;;1.10;1.10;;;;;;;21.89;76.12;99946.14;1775180;80;21010;-72
2022/08/09 09:46:32;;;;;;;2.42;1.32;;;;;;;21.88;75.46;99945.77;1728851;80;21073;-73
2022/08/09 09:49:03;;;;;;;1.45;1.22;;;;;;;21.85;73.59;99950.83;1774835;80;21158;-76
2022/08/09 09:51:32;;;;;;;4.15;1.90;;;;;;;21.84;73.92;99946.98;1774897;80;20995;-75
2022/08/09 09:54:09;;;;;;;1.52;1.42;;;;;;;21.84;74.51;99947.83;1775193;80;21010;-75
2022/08/09 09:56:39;;;;;;;1.45;1.35;;;;;;;21.89;75.18;99949.63;1775087;80;21012;-75
2022/08/09 09:59:08;;;;;;;4.33;1.98;;;;;;;21.97;74.94;99943.23;1775068;80;20958;-70
2022/08/09 10:01:35;;;;;;;2.70;2.02;;;;;;;22.03;72.82;99939.26;1775611;80;21108;-71
2022/08/09 10:04:03;;;;;;;5.85;1.85;;;;;;;22.13;73.76;99936.72;1775032;80;21034;-71
2022/08/09 10:06:40;;;;;;;4.45;1.70;;;;;;;22.24;74.37;99936.18;1719748;80;21014;-70
2022/08/09 10:09:11;;;;;;;2.90;1.60;;;;;;;22.38;71.23;99929.77;1774357;80;21037;-72
2022/08/09 10:11:38;;;;;;;2.87;1.55;;;;;;;22.47;69.22;99934.28;1770932;80;21089;-71
2022/08/09 10:14:10;;;;;;;1.80;1.50;;;;;;;22.58;70.20;99934.20;1770610;80;21601;-73
2022/08/09 10:16:37;;;;;;;2.83;1.77;;;;;;;22.75;69.61;99928.00;1762123;79;21023;-72
2022/08/09 10:19:06;;;;;;;3.58;1.45;;;;;;;22.95;69.87;99931.16;1785208;79;21032;-71
2022/08/09 10:21:34;;;;;;;1.45;1.35;;;;;;;23.14;67.36;99935.72;1766868;79;21022;-72
2022/08/09 10:24:03;;;;;;;1.72;1.47;;;;;;;23.22;65.53;99927.43;1770148;79;21073;-73
2022/08/09 10:26:30;;;;;;;2.27;1.57;;;;;;;23.24;64.41;99932.61;1787391;80;21228;-71
2022/08/09 10:28:57;;;;;;;3.05;1.45;;;;;;;23.21;64.19;99935.52;1787446;80;21043;-72
2022/08/09 10:31:23;;;;;;;3.35;1.65;;;;;;;23.15;64.54;99928.11;1787924;80;21077;-73
2022/08/09 10:33:50;;;;;;;1.60;1.50;;;;;;;23.12;64.74;99924.39;1786790;80;21766;-72
2022/08/09 10:36:17;;;;;;;2.10;1.50;;;;;;;23.11;64.46;99920.90;1787501;80;21105;-71
2022/08/09 10:38:45;;;;;;;3.02;1.80;;;;;;;23.16;65.70;99921.35;1787838;80;21088;-72
2022/08/09 10:41:14;;;;;;;10.98;2.20;;;;;;;23.25;64.87;99914.39;1786866;80;21006;-72
2022/08/09 10:43:48;;;;;;;5.05;1.67;;;;;;;23.30;64.27;99919.66;1710241;83;21341;-70
2022/08/09 10:46:43;;;;;;;2.92;1.50;;;;;;;23.34;64.49;99913.59;1778245;80;20972;-71
2022/08/09 10:49:32;;;;;;;2.08;1.67;;;;;;;23.42;64.67;99911.09;1772786;80;21117;-72
2022/08/09 10:52:30;;;;;;;3.42;1.60;;;;;;;23.48;65.71;99913.70;1742676;82;21237;-72
2022/08/09 10:55:23;;;;;;;3.27;1.85;;;;;;;23.51;65.82;99910.79;1743359;80;21017;-71
2022/08/09 10:57:52;;;;;;;1.47;1.37;;;;;;;23.48;65.83;99915.03;1735043;82;21130;-72
2022/08/09 11:00:41;;;;;;;4.85;1.60;;;;;;;23.42;65.03;99914.23;1711164;83;21097;-72
2022/08/09 11:03:24;;;;;;;2.42;1.42;;;;;;;23.38;64.59;99912.84;1715164;82;21106;-72
2022/08/09 11:06:19;;;;;;;7.30;1.87;;;;;;;23.30;64.07;99925.45;1733729;82;21134;-72
2022/08/09 11:08:47;;;;;;;2.65;1.62;;;;;;;23.26;64.07;99911.60;1676398;85;20979;-71
2022/08/09 11:11:16;;;;;;;1.60;1.50;;;;;;;23.23;64.23;99914.52;1676391;84;20992;-73
2022/08/09 11:13:43;;;;;;;5.05;1.75;;;;;;;23.18;62.95;99911.41;1677208;84;20990;-72
2022/08/09 11:16:38;;;;;;;3.65;1.27;;;;;;;23.02;63.89;99909.73;1686976;84;21002;-72
2022/08/09 11:19:06;;;;;;;1.60;1.50;;;;;;;22.94;64.85;99905.11;1691030;84;21099;-72
2022/08/09 11:21:56;;;;;;;4.00;1.70;;;;;;;22.92;64.73;99908.86;1688707;84;21111;-72
2022/08/09 11:24:22;;;;;;;4.47;1.62;;;;;;;22.89;64.15;99909.13;1692855;84;21117;-73
2022/08/09 11:26:49;;;;;;;1.27;1.17;;;;;;;22.82;64.05;99903.48;1668829;85;21043;-73
2022/08/09 11:29:57;;;;;;;2.45;1.50;;;;;;;22.77;64.80;99911.47;1675961;85;21070;-73
2022/08/09 11:32:44;;;;;;;3.45;1.40;;;;;;;22.75;65.76;99906.30;1690267;84;21092;-73
2022/08/09 11:35:27;;;;;;;1.82;1.47;;;;;;;22.78;65.62;99907.88;1692467;84;21104;-73
2022/08/09 11:37:57;;;;;;;1.52;1.35;;;;;;;22.73;64.53;99914.02;1692542;84;22024;-72
2022/08/09 11:40:31;;;;;;;4.85;1.20;;;;;;;22.61;64.27;99909.25;1681896;83;21065;-73
2022/08/09 11:42:58;;;;;;;1.75;1.27;;;;;;;22.51;64.18;99907.03;1690266;84;21641;-73
2022/08/09 11:45:30;;;;;;;1.70;1.17;;;;;;;22.45;65.01;99908.38;1675747;85;21852;-71
2022/08/09 11:48:02;;;;;;;4.33;1.42;;;;;;;22.39;64.76;99912.02;1738849;82;21022;-71
2022/08/09 11:50:29;;;;;;;1.87;1.30;;;;;;;22.32;65.22;99915.20;1696299;83;20977;-71
2022/08/09 11:53:10;;;;;;;2.45;1.10;;;;;;;22.31;64.88;99908.22;1692534;83;21071;-71
2022/08/09 11:55:41;;;;;;;2.27;1.17;;;;;;;22.27;65.07;99906.78;1717953;83;21069;-74
2022/08/09 11:58:16;;;;;;;1.50;1.40;;;;;;;22.22;64.72;99914.75;1717742;83;21266;-71
2022/08/09 12:00:54;;;;;;;6.08;1.52;;;;;;;22.11;65.06;99920.10;1716350;83;21335;-72
2022/08/09 12:03:23;;;;;;;2.02;1.30;;;;;;;22.04;66.29;99922.41;1699444;83;21033;-72
2022/08/09 12:05:51;;;;;;;1.40;1.22;;;;;;;22.02;67.04;99922.16;1716755;83;21312;-72
2022/08/09 12:08:19;;;;;;;4.92;1.05;;;;;;;22.01;67.17;99926.63;1717578;83;21536;-70
2022/08/09 12:10:50;;;;;;;4.03;1.32;;;;;;;21.99;67.89;99925.87;1717575;82;21228;-72
2022/08/09 12:13:39;;;;;;;3.02;1.35;;;;;;;21.92;67.57;99913.63;1717799;82;21038;-72
2022/08/09 12:16:12;;;;;;;1.75;1.57;;;;;;;21.82;68.60;99923.75;1672978;85;21441;-72
2022/08/09 12:18:42;;;;;;;2.55;1.05;;;;;;;21.69;69.27;99909.83;1771648;79;21014;-72
2022/08/09 12:21:08;;;;;;;1.40;1.27;;;;;;;21.58;69.54;99910.70;1793331;79;21076;-70
2022/08/09 12:23:46;;;;;;;2.02;1.15;;;;;;;21.49;70.61;99908.78;1798626;79;21759;-72
2022/08/09 12:26:12;;;;;;;1.60;1.50;;;;;;;21.42;70.61;99912.86;1799507;79;21022;-72
2022/08/09 12:28:51;;;;;;;1.57;1.10;;;;;;;21.39;73.15;99911.30;1797447;79;21033;-72
2022/08/09 12:31:20;;;;;;;3.67;2.33;;;;;;;21.39;74.90;99909.97;1752916;81;21045;-71
2022/08/09 12:33:48;;;;;;;2.60;1.77;;;;;;;21.36;75.34;99912.89;1724852;81;21061;-70
2022/08/09 12:36:15;;;;;;;2.58;2.30;;;;;;;21.35;75.92;99920.95;1752603;81;21134;-71
2022/08/09 12:38:41;;;;;;;2.05;1.75;;;;;;;21.34;76.95;99924.55;1784394;79;21497;-71
2022/08/09 12:41:08;;;;;;;1.22;1.15;;;;;;;21.35;77.05;99919.63;1787642;79;21046;-72
2022/08/09 12:43:35;;;;;;;5.12;1.20;;;;;;;21.37;74.89;99920.34;1785523;79;21002;-72
2022/08/09 12:46:02;;;;;;;1.52;1.20;;;;;;;21.36;74.49;99925.28;1770113;79;21006;-72
2022/08/09 12:48:29;;;;;;;2.12;1.10;;;;;;;21.27;72.86;99911.80;1795553;79;21190;-72
2022/08/09 12:50:56;;;;;;;4.97;1.20;;;;;;;21.13;73.22;99902.76;1782043;80;21013;-72
2022/08/09 12:53:34;;;;;;;2.37;1.60;;;;;;;20.98;73.14;99907.41;1779581;80;21022;-72
2022/08/09 12:56:15;;;;;;;2.67;1.27;;;;;;;20.87;72.84;99898.64;1779434;80;21029;-72
2022/08/09 12:59:02;;;;;;;1.37;1.17;;;;;;;20.79;74.31;99904.51;1802097;78;21052;-74
2022/08/09 13:01:29;;;;;;;1.40;1.30;;;;;;;20.74;76.69;99911.13;1789302;79;21174;-70
2022/08/09 13:04:01;;;;;;;1.95;1.30;;;;;;;20.60;78.89;99911.68;1810325;79;21034;-71
2022/08/09 13:06:40;;;;;;;1.55;1.22;;;;;;;20.48;80.94;99916.58;1810623;79;21481;-71
2022/08/09 13:09:24;;;;;;;3.87;1.30;;;;;;;20.39;80.17;99917.26;1810307;79;21006;-71
2022/08/09 13:11:56;;;;;;;1.75;1.20;;;;;;;20.28;81.72;99907.95;1797950;79;21048;-71
2022/08/09 13:14:25;;;;;;;1.97;1.07;;;;;;;20.20;80.22;99916.44;1773018;79;22904;-71
2022/08/09 13:16:57;;;;;;;1.15;0.95;;;;;;;20.16;78.58;99922.08;1721508;81;22165;-71
2022/08/09 13:19:39;;;;;;;1.92;0.82;;;;;;;20.11;78.08;99923.73;1751296;81;21093;-70
2022/08/09 13:22:24;;;;;;;1.10;1.00;;;;;;;20.06;76.90;99917.94;1721326;82;21607;-70
2022/08/09 13:24:58;;;;;;;4.12;1.20;;;;;;;20.04;77.04;99912.41;1750953;81;21568;-72
2022/08/09 13:27:36;;;;;;;4.85;1.15;;;;;;;20.00;76.74;99920.17;1721132;83;21144;-70
2022/08/09 13:30:17;;;;;;;1.40;1.17;;;;;;;19.95;77.75;99920.06;1749567;81;21734;-71
2022/08/09 13:32:53;;;;;;;2.75;0.90;;;;;;;19.93;78.64;99924.61;1721137;83;21054;-71
2022/08/09 13:35:25;;;;;;;1.05;0.90;;;;;;;19.94;78.73;99931.58;1750819;81;21821;-71